createdAt,value
2023-08-30T00:01:49.103Z,99902.81
2023-08-30T00:04:16.051Z,99902.69
2023-08-30T00:06:43.466Z,99902.38
2023-08-30T00:09:10.422Z,99898.06
2023-08-30T00:11:37.596Z,99893.28
2023-08-30T00:14:07.454Z,99888.03
2023-08-30T00:16:35.140Z,99888.22
2023-08-30T00:19:02.285Z,99896.81
2023-08-30T00:21:29.851Z,99906.00
2023-08-30T00:23:57.133Z,99902.06
2023-08-30T00:26:24.695Z,99909.38
2023-08-30T00:28:52.737Z,99905.69
2023-08-30T00:31:20.093Z,99909.84
2023-08-30T00:33:47.102Z,99910.88
2023-08-30T00:36:14.404Z,99909.19
2023-08-30T00:38:42.432Z,99910.72
2023-08-30T00:41:10.457Z,99910.97
2023-08-30T00:43:37.417Z,99902.91
2023-08-30T00:46:04.781Z,99903.38
2023-08-30T00:48:33.141Z,99894.47
2023-08-30T00:51:00.246Z,99892.59
2023-08-30T00:53:27.349Z,99896.28
2023-08-30T00:55:54.339Z,99891.31
2023-08-30T00:58:21.432Z,99889.34
2023-08-30T01:00:49.392Z,99900.47
2023-08-30T01:03:16.475Z,99896.28
2023-08-30T01:05:43.896Z,99887.41
2023-08-30T01:08:12.677Z,99885.72
2023-08-30T01:11:05.005Z,99885.00
2023-08-30T01:13:35.280Z,99898.53
2023-08-30T01:16:05.594Z,99903.31
2023-08-30T01:18:38.175Z,99905.53
2023-08-30T01:21:06.950Z,99905.16
2023-08-30T01:23:45.985Z,99905.00
2023-08-30T01:26:17.303Z,99900.63
2023-08-30T01:28:49.029Z,99910.09
2023-08-30T01:31:16.527Z,99912.78
2023-08-30T01:33:44.403Z,99909.25
2023-08-30T01:36:11.537Z,99917.31
2023-08-30T01:38:40.660Z,99911.66
2023-08-30T01:41:08.799Z,99913.50
2023-08-30T01:43:36.972Z,99920.72
2023-08-30T01:46:05.801Z,99922.97
2023-08-30T01:48:35.058Z,99925.81
2023-08-30T01:51:03.790Z,99930.16
2023-08-30T01:53:32.712Z,99930.13
2023-08-30T01:56:00.958Z,99931.84
2023-08-30T01:58:27.902Z,99934.78
2023-08-30T02:00:54.967Z,99927.97
2023-08-30T02:03:24.072Z,99928.72
2023-08-30T02:06:15.987Z,99912.00
2023-08-30T02:08:56.423Z,99903.84
2023-08-30T02:11:28.756Z,99907.97
2023-08-30T02:13:58.847Z,99909.50
2023-08-30T02:16:28.114Z,99924.13
2023-08-30T02:18:56.802Z,99925.09
2023-08-30T02:21:24.006Z,99913.28
2023-08-30T02:23:52.332Z,99916.13
2023-08-30T02:26:20.717Z,99921.03
2023-08-30T02:28:48.389Z,99933.00
2023-08-30T02:31:15.659Z,99928.63
2023-08-30T02:33:47.694Z,99923.28
2023-08-30T02:36:14.666Z,99924.97
2023-08-30T02:38:42.606Z,99920.31
2023-08-30T02:41:11.527Z,99916.66
2023-08-30T02:43:40.551Z,99913.25
2023-08-30T02:46:10.144Z,99903.31
2023-08-30T02:48:39.128Z,99896.72
2023-08-30T02:51:09.476Z,99895.75
2023-08-30T02:53:36.469Z,99894.19
2023-08-30T02:56:03.610Z,99892.94
2023-08-30T02:58:34.351Z,99886.16
2023-08-30T03:01:04.242Z,99882.94
2023-08-30T03:03:31.967Z,99883.78
2023-08-30T03:05:59.360Z,99872.78
2023-08-30T03:08:26.393Z,99871.38
2023-08-30T03:10:53.523Z,99870.69
2023-08-30T03:13:20.823Z,99868.03
2023-08-30T03:15:52.169Z,99870.09
2023-08-30T03:18:21.027Z,99866.88
2023-08-30T03:20:48.885Z,99858.19
2023-08-30T03:23:15.875Z,99862.50
2023-08-30T03:25:42.857Z,99865.19
2023-08-30T03:28:10.081Z,99867.44
2023-08-30T03:30:37.485Z,99875.44
2023-08-30T03:33:04.716Z,99871.53
2023-08-30T03:35:35.367Z,99882.91
2023-08-30T03:38:03.462Z,99882.63
2023-08-30T03:40:31.496Z,99885.03
2023-08-30T03:42:58.485Z,99896.41
2023-08-30T03:45:25.647Z,99899.94
2023-08-30T03:47:55.950Z,99897.56
2023-08-30T03:50:23.887Z,99900.38
2023-08-30T03:52:51.879Z,99896.16
2023-08-30T03:55:19.243Z,99904.06
2023-08-30T03:57:47.182Z,99904.47
2023-08-30T04:00:15.765Z,99907.56
2023-08-30T04:02:42.696Z,99907.38
2023-08-30T04:05:10.504Z,99899.38
2023-08-30T04:07:38.819Z,99889.81
2023-08-30T04:10:08.452Z,99888.41
2023-08-30T04:12:36.217Z,99890.66
2023-08-30T04:15:11.471Z,99892.19
2023-08-30T04:17:42.155Z,99891.47
2023-08-30T04:20:09.323Z,99903.72
2023-08-30T04:22:37.364Z,99904.84
2023-08-30T04:25:06.390Z,99902.47
2023-08-30T04:27:34.113Z,99902.47
2023-08-30T04:30:01.187Z,99910.94
2023-08-30T04:32:28.428Z,99902.19
2023-08-30T04:34:58.482Z,99903.34
2023-08-30T04:37:26.424Z,99906.84
2023-08-30T04:39:53.487Z,99916.28
2023-08-30T04:42:22.389Z,99915.56
2023-08-30T04:44:49.858Z,99909.09
2023-08-30T04:47:17.265Z,99912.50
2023-08-30T04:49:44.917Z,99913.59
2023-08-30T04:52:14.448Z,99918.25
2023-08-30T04:54:43.031Z,99930.06
2023-08-30T04:57:10.512Z,99922.88
2023-08-30T04:59:37.568Z,99923.88
2023-08-30T05:02:04.822Z,99929.34
2023-08-30T05:04:34.744Z,99930.63
2023-08-30T05:07:01.718Z,99932.84
2023-08-30T05:09:29.184Z,99925.03
2023-08-30T05:11:56.270Z,99926.56
2023-08-30T05:14:23.362Z,99922.59
2023-08-30T05:16:53.080Z,99917.22
2023-08-30T05:19:20.578Z,99924.28
2023-08-30T05:21:47.653Z,99923.16
2023-08-30T05:24:14.807Z,99926.41
2023-08-30T05:26:42.052Z,99922.63
2023-08-30T05:29:09.117Z,99921.34
2023-08-30T05:31:36.108Z,99925.69
2023-08-30T05:34:22.216Z,99924.31
2023-08-30T05:37:09.911Z,99922.88
2023-08-30T05:39:55.823Z,99925.41
2023-08-30T05:42:22.818Z,99923.84
2023-08-30T05:44:50.012Z,99917.22
2023-08-30T05:47:18.690Z,99909.75
2023-08-30T05:49:46.966Z,99910.75
2023-08-30T05:52:17.505Z,99913.44
2023-08-30T05:54:44.430Z,99911.91
2023-08-30T05:57:11.610Z,99907.22
2023-08-30T05:59:38.570Z,99911.03
2023-08-30T06:02:05.856Z,99904.84
2023-08-30T06:04:33.059Z,99911.63
2023-08-30T06:07:00.155Z,99911.59
2023-08-30T06:09:27.146Z,99913.03
2023-08-30T06:11:54.032Z,99914.00
2023-08-30T06:14:21.307Z,99916.69
2023-08-30T06:16:48.648Z,99907.38
2023-08-30T06:19:15.758Z,99902.28
2023-08-30T06:21:43.082Z,99903.56
2023-08-30T06:24:10.144Z,99903.53
2023-08-30T06:26:37.066Z,99909.13
2023-08-30T06:29:05.426Z,99908.97
2023-08-30T06:31:33.957Z,99905.53
2023-08-30T06:34:01.203Z,99910.31
2023-08-30T06:36:28.179Z,99905.81
2023-08-30T06:38:56.269Z,99905.63
2023-08-30T06:41:23.408Z,99907.25
2023-08-30T06:43:50.390Z,99901.97
2023-08-30T06:46:18.102Z,99908.00
2023-08-30T06:48:46.320Z,99906.88
2023-08-30T06:51:13.265Z,99911.47
2023-08-30T06:53:40.265Z,99913.41
2023-08-30T06:56:07.200Z,99904.47
2023-08-30T06:58:37.020Z,99895.88
2023-08-30T07:01:04.831Z,99895.66
2023-08-30T07:03:35.476Z,99899.72
2023-08-30T07:06:02.575Z,99900.25
2023-08-30T07:08:30.754Z,99897.50
2023-08-30T07:10:59.342Z,99898.41
2023-08-30T07:13:26.280Z,99903.63
2023-08-30T07:15:53.276Z,99902.00
2023-08-30T07:18:20.289Z,99901.81
2023-08-30T07:20:47.360Z,99902.63
2023-08-30T07:23:15.159Z,99901.09
2023-08-30T07:25:42.248Z,99902.53
2023-08-30T07:28:09.931Z,99890.75
2023-08-30T07:30:37.888Z,99897.03
2023-08-30T07:33:06.086Z,99888.56
2023-08-30T07:35:34.236Z,99903.59
2023-08-30T07:38:01.246Z,99897.94
2023-08-30T07:40:29.837Z,99907.13
2023-08-30T07:42:59.836Z,99901.97
2023-08-30T07:45:27.465Z,99897.41
2023-08-30T07:47:54.623Z,99906.03
2023-08-30T07:50:22.564Z,99903.56
2023-08-30T07:52:49.475Z,99904.91
2023-08-30T07:55:16.742Z,99906.81
2023-08-30T07:57:45.044Z,99909.84
2023-08-30T08:00:12.469Z,99907.84
2023-08-30T08:02:46.234Z,99913.91
2023-08-30T08:05:13.353Z,99908.56
2023-08-30T08:07:42.084Z,99899.00
2023-08-30T08:10:09.948Z,99899.53
2023-08-30T08:12:37.059Z,99903.59
2023-08-30T08:15:04.704Z,99897.88
2023-08-30T08:17:31.659Z,99902.66
2023-08-30T08:19:58.589Z,99897.63
2023-08-30T08:22:28.525Z,99895.31
2023-08-30T08:24:57.761Z,99892.94
2023-08-30T08:27:26.552Z,99899.34
2023-08-30T08:29:55.041Z,99895.34
2023-08-30T08:32:22.508Z,99906.09
2023-08-30T08:34:49.939Z,99902.41
2023-08-30T08:37:17.581Z,99908.94
2023-08-30T08:39:46.409Z,99901.09
2023-08-30T08:42:13.587Z,99904.28
2023-08-30T08:44:41.497Z,99899.75
2023-08-30T08:47:08.775Z,99905.09
2023-08-30T08:49:36.153Z,99897.41
2023-08-30T08:52:12.189Z,99895.19
2023-08-30T08:54:41.423Z,99897.41
2023-08-30T08:57:09.258Z,99893.72
2023-08-30T08:59:36.685Z,99890.72
2023-08-30T09:02:04.083Z,99891.09
2023-08-30T09:04:34.152Z,99888.91
2023-08-30T09:07:01.685Z,99890.56
2023-08-30T09:09:28.788Z,99884.06
2023-08-30T09:11:56.038Z,99883.72
2023-08-30T09:14:24.202Z,99891.13
2023-08-30T09:17:04.449Z,99888.75
2023-08-30T09:19:32.192Z,99885.22
2023-08-30T09:22:00.370Z,99889.78
2023-08-30T09:24:27.876Z,99884.72
2023-08-30T09:26:57.675Z,99873.59
2023-08-30T09:29:26.438Z,99875.63
2023-08-30T09:31:56.902Z,99870.03
2023-08-30T09:34:25.999Z,99875.09
2023-08-30T09:36:55.207Z,99870.91
2023-08-30T09:39:23.741Z,99871.91
2023-08-30T09:41:52.058Z,99866.97
2023-08-30T09:44:23.554Z,99870.81
2023-08-30T09:46:55.184Z,99870.03
2023-08-30T09:49:27.381Z,99866.47
2023-08-30T09:51:56.868Z,99874.53
2023-08-30T09:56:57.737Z,99876.44
2023-08-30T09:59:25.827Z,99876.94
2023-08-30T10:01:54.396Z,99879.50
2023-08-30T10:04:23.334Z,99875.13
2023-08-30T10:06:50.636Z,99874.94
2023-08-30T10:09:20.297Z,99862.66
2023-08-30T10:11:48.298Z,99865.13
2023-08-30T10:14:15.842Z,99863.78
2023-08-30T10:16:47.518Z,99852.78
2023-08-30T10:19:26.320Z,99852.09
2023-08-30T10:22:09.873Z,99855.50
2023-08-30T10:25:10.597Z,99849.97
2023-08-30T10:27:41.061Z,99850.16
2023-08-30T10:30:09.227Z,99848.72
2023-08-30T10:32:43.508Z,99848.31
2023-08-30T10:35:15.740Z,99851.06
2023-08-30T10:37:43.674Z,99843.94
2023-08-30T10:40:11.496Z,99857.50
2023-08-30T10:42:38.453Z,99852.94
2023-08-30T10:47:39.868Z,99848.84
2023-08-30T10:50:14.478Z,99869.13
2023-08-30T10:52:42.115Z,99857.38
2023-08-30T10:55:15.637Z,99861.41
2023-08-30T10:57:45.576Z,99864.44
2023-08-30T11:00:16.760Z,99860.19
2023-08-30T11:02:49.753Z,99858.69
2023-08-30T11:05:18.439Z,99854.56
2023-08-30T11:07:46.823Z,99853.09
2023-08-30T11:10:14.195Z,99846.94
2023-08-30T11:12:42.530Z,99858.94
2023-08-30T11:15:11.113Z,99853.66
2023-08-30T11:17:38.662Z,99852.53
2023-08-30T11:20:09.434Z,99860.91
2023-08-30T11:22:41.432Z,99862.22
2023-08-30T11:25:17.185Z,99864.06
2023-08-30T11:27:44.450Z,99856.06
2023-08-30T11:30:12.397Z,99853.47
2023-08-30T11:32:41.442Z,99846.13
2023-08-30T11:35:10.436Z,99858.50
2023-08-30T11:37:37.848Z,99851.34
2023-08-30T11:40:07.688Z,99856.81
2023-08-30T11:42:35.337Z,99847.47
2023-08-30T11:45:04.042Z,99854.75
2023-08-30T11:47:31.558Z,99853.22
2023-08-30T11:50:00.570Z,99847.53
2023-08-30T11:52:28.541Z,99852.34
2023-08-30T11:54:55.956Z,99849.56
2023-08-30T11:57:22.914Z,99847.56
2023-08-30T11:59:52.339Z,99853.81
2023-08-30T12:02:19.979Z,99838.81
2023-08-30T12:04:48.219Z,99839.72
2023-08-30T12:07:25.636Z,99835.81
2023-08-30T12:09:52.870Z,99850.44
2023-08-30T12:12:20.732Z,99843.84
2023-08-30T12:14:56.364Z,99839.66
2023-08-30T12:17:23.430Z,99839.91
2023-08-30T12:19:57.502Z,99842.53
2023-08-30T12:22:40.661Z,99832.84
2023-08-30T12:25:43.969Z,99832.13
2023-08-30T12:28:11.578Z,99837.25
2023-08-30T12:30:38.808Z,99837.34
2023-08-30T12:33:05.995Z,99836.28
2023-08-30T12:35:35.962Z,99837.22
2023-08-30T12:38:02.972Z,99835.03
2023-08-30T12:40:29.933Z,99826.34
2023-08-30T12:42:56.837Z,99826.31
2023-08-30T12:45:24.689Z,99824.66
2023-08-30T12:47:51.623Z,99823.25
2023-08-30T12:50:18.673Z,99819.50
2023-08-30T12:52:46.842Z,99824.13
2023-08-30T12:55:14.701Z,99824.44
2023-08-30T12:57:41.707Z,99823.38
2023-08-30T13:00:09.432Z,99825.03
2023-08-30T13:02:36.562Z,99814.69
2023-08-30T13:05:03.834Z,99820.22
2023-08-30T13:07:35.076Z,99829.94
2023-08-30T13:10:03.900Z,99824.50
2023-08-30T13:12:30.945Z,99825.16
2023-08-30T13:14:57.951Z,99819.56
2023-08-30T13:17:24.950Z,99825.81
2023-08-30T13:19:52.424Z,99822.09
2023-08-30T13:22:20.985Z,99818.13
2023-08-30T13:24:48.799Z,99813.44
2023-08-30T13:27:17.157Z,99819.84
2023-08-30T13:29:45.546Z,99813.69
2023-08-30T13:32:12.812Z,99820.91
2023-08-30T13:34:47.404Z,99821.16
2023-08-30T13:37:14.718Z,99822.53
2023-08-30T13:39:41.714Z,99824.53
2023-08-30T13:42:09.083Z,99818.69
2023-08-30T13:44:39.382Z,99818.69
2023-08-30T13:47:06.466Z,99820.19
2023-08-30T13:49:37.089Z,99817.50
2023-08-30T13:52:04.373Z,99809.41
2023-08-30T13:54:33.840Z,99819.50
2023-08-30T13:57:00.854Z,99818.75
2023-08-30T13:59:29.824Z,99812.44
2023-08-30T14:01:58.635Z,99812.22
2023-08-30T14:04:27.113Z,99806.06
2023-08-30T14:06:54.902Z,99796.66
2023-08-30T14:09:23.635Z,99795.75
2023-08-30T14:11:52.355Z,99799.41
2023-08-30T14:14:20.524Z,99801.00
2023-08-30T14:16:49.290Z,99797.41
2023-08-30T14:19:17.011Z,99799.22
2023-08-30T14:21:46.748Z,99802.16
2023-08-30T14:24:14.291Z,99801.88
2023-08-30T14:26:42.773Z,99804.50
2023-08-30T14:29:09.934Z,99800.94
2023-08-30T14:31:37.838Z,99782.13
2023-08-30T14:34:04.936Z,99796.88
2023-08-30T14:36:31.925Z,99778.28
2023-08-30T14:38:58.828Z,99786.44
2023-08-30T14:41:26.141Z,99783.75
2023-08-30T14:43:53.119Z,99776.66
2023-08-30T14:46:24.334Z,99771.75
2023-08-30T14:48:53.977Z,99770.88
2023-08-30T14:51:23.022Z,99775.84
2023-08-30T14:53:49.999Z,99771.47
2023-08-30T14:56:19.216Z,99768.00
2023-08-30T14:58:51.692Z,99773.31
2023-08-30T15:01:18.719Z,99768.84
2023-08-30T15:03:46.483Z,99775.31
2023-08-30T15:06:13.422Z,99773.91
2023-08-30T15:08:41.530Z,99765.56
2023-08-30T15:11:09.820Z,99760.84
2023-08-30T15:13:39.136Z,99761.72
2023-08-30T15:16:06.622Z,99763.59
2023-08-30T15:18:33.578Z,99758.63
2023-08-30T15:21:01.230Z,99758.00
2023-08-30T15:23:28.482Z,99755.28
2023-08-30T15:25:55.480Z,99753.66
2023-08-30T15:28:22.491Z,99752.09
2023-08-30T15:30:52.181Z,99747.59
2023-08-30T15:33:54.786Z,99751.16
2023-08-30T15:36:06.999Z,99755.53
2023-08-30T15:38:35.710Z,99761.91
2023-08-30T15:41:07.850Z,99766.34
2023-08-30T15:43:42.162Z,99766.47
2023-08-30T15:46:12.540Z,99762.94
2023-08-30T15:48:41.242Z,99763.59
2023-08-30T15:51:20.568Z,99757.63
2023-08-30T15:53:51.644Z,99763.63
2023-08-30T15:56:18.664Z,99757.94
2023-08-30T15:58:47.538Z,99765.22
2023-08-30T16:01:18.298Z,99753.09
2023-08-30T16:03:45.384Z,99759.22
2023-08-30T16:06:12.427Z,99761.84
2023-08-30T16:08:40.591Z,99762.66
2023-08-30T16:11:07.544Z,99764.53
2023-08-30T16:13:37.265Z,99762.84
2023-08-30T16:16:04.809Z,99765.94
2023-08-30T16:18:33.397Z,99758.72
2023-08-30T16:21:00.325Z,99767.41
2023-08-30T16:23:30.124Z,99763.94
2023-08-30T16:26:00.481Z,99766.38
2023-08-30T16:28:27.918Z,99768.47
2023-08-30T16:31:06.326Z,99760.28
2023-08-30T16:33:33.629Z,99773.97
2023-08-30T16:36:04.041Z,99770.75
2023-08-30T16:38:31.169Z,99771.19
2023-08-30T16:41:03.734Z,99766.50
2023-08-30T16:43:33.573Z,99771.06
2023-08-30T16:46:00.509Z,99763.84
2023-08-30T16:48:27.882Z,99763.50
2023-08-30T16:50:55.096Z,99765.75
2023-08-30T16:53:22.127Z,99759.47
2023-08-30T16:55:49.671Z,99761.84
2023-08-30T16:58:16.650Z,99753.00
2023-08-30T17:00:45.144Z,99746.53
2023-08-30T17:03:12.571Z,99749.78
2023-08-30T17:05:41.351Z,99747.94
2023-08-30T17:08:08.876Z,99755.53
2023-08-30T17:10:38.466Z,99756.91
2023-08-30T17:13:05.538Z,99754.47
2023-08-30T17:15:33.056Z,99751.59
2023-08-30T17:18:00.443Z,99756.97
2023-08-30T17:20:27.370Z,99753.84
2023-08-30T17:22:54.302Z,99750.31
2023-08-30T17:25:21.370Z,99753.19
2023-08-30T17:27:48.305Z,99750.50
2023-08-30T17:30:17.610Z,99749.38
2023-08-30T17:32:44.617Z,99746.47
2023-08-30T17:35:11.805Z,99756.31
2023-08-30T17:37:42.462Z,99756.09
2023-08-30T17:40:10.858Z,99756.34
2023-08-30T17:42:37.925Z,99755.84
2023-08-30T17:45:19.850Z,99753.94
2023-08-30T17:47:48.717Z,99751.66
2023-08-30T17:50:16.788Z,99749.38
2023-08-30T17:52:45.353Z,99751.31
2023-08-30T17:55:17.140Z,99755.41
2023-08-30T17:57:44.398Z,99753.97
2023-08-30T18:00:15.562Z,99759.72
2023-08-30T18:02:46.447Z,99754.38
2023-08-30T18:05:14.915Z,99748.66
2023-08-30T18:07:41.997Z,99749.00
2023-08-30T18:10:09.254Z,99749.56
2023-08-30T18:12:36.244Z,99753.44
2023-08-30T18:15:04.165Z,99752.97
2023-08-30T18:17:33.497Z,99751.13
2023-08-30T18:20:01.527Z,99760.75
2023-08-30T18:22:28.562Z,99757.44
2023-08-30T18:24:56.333Z,99760.44
2023-08-30T18:27:23.293Z,99764.50
2023-08-30T18:29:51.250Z,99758.47
2023-08-30T18:32:18.216Z,99755.13
2023-08-30T18:34:45.481Z,99763.50
2023-08-30T18:37:20.414Z,99756.31
2023-08-30T18:39:47.673Z,99762.72
2023-08-30T18:42:17.062Z,99769.38
2023-08-30T18:44:45.391Z,99766.50
2023-08-30T18:47:16.575Z,99772.56
2023-08-30T18:49:45.141Z,99775.75
2023-08-30T18:52:12.597Z,99771.25
2023-08-30T18:54:44.950Z,99774.75
2023-08-30T18:57:14.317Z,99770.06
2023-08-30T18:59:43.953Z,99769.88
2023-08-30T19:02:10.926Z,99760.28
2023-08-30T19:04:37.965Z,99763.97
2023-08-30T19:07:05.289Z,99764.63
2023-08-30T19:09:37.308Z,99758.91
2023-08-30T19:12:06.519Z,99758.41
2023-08-30T19:14:33.724Z,99765.63
2023-08-30T19:17:01.020Z,99761.91
2023-08-30T19:19:29.267Z,99766.78
2023-08-30T19:22:38.271Z,99769.28
2023-08-30T19:25:06.695Z,99768.78
2023-08-30T19:27:33.687Z,99777.16
2023-08-30T19:30:00.987Z,99777.00
2023-08-30T19:32:29.358Z,99771.28
2023-08-30T19:34:56.305Z,99774.97
2023-08-30T19:37:28.210Z,99775.31
2023-08-30T19:39:55.454Z,99777.97
2023-08-30T19:42:25.373Z,99770.91
2023-08-30T19:44:59.818Z,99766.88
2023-08-30T19:47:26.822Z,99770.09
2023-08-30T19:49:54.186Z,99771.25
2023-08-30T19:52:21.609Z,99775.28
2023-08-30T19:54:49.423Z,99776.75
2023-08-30T19:57:17.251Z,99772.59
2023-08-30T19:59:45.870Z,99773.75
2023-08-30T20:02:16.422Z,99777.59
2023-08-30T20:04:44.220Z,99772.34
2023-08-30T20:07:11.323Z,99775.88
2023-08-30T20:09:39.076Z,99765.31
2023-08-30T20:12:06.371Z,99762.06
2023-08-30T20:14:36.009Z,99761.16
2023-08-30T20:17:03.458Z,99765.88
2023-08-30T20:19:31.209Z,99769.25
2023-08-30T20:21:58.689Z,99765.91
2023-08-30T20:24:27.215Z,99768.06
2023-08-30T20:26:54.225Z,99768.06
2023-08-30T20:29:24.681Z,99759.00
2023-08-30T20:31:52.021Z,99761.69
2023-08-30T20:34:21.221Z,99753.28
2023-08-30T20:36:48.431Z,99749.28
2023-08-30T20:39:16.599Z,99746.06
2023-08-30T20:41:45.003Z,99752.81
2023-08-30T20:44:12.023Z,99745.41
2023-08-30T20:46:40.032Z,99744.88
2023-08-30T20:49:08.433Z,99736.81
2023-08-30T20:51:35.430Z,99750.59
2023-08-30T20:54:02.424Z,99746.19
2023-08-30T20:56:30.067Z,99747.34
2023-08-30T20:59:02.601Z,99745.16
2023-08-30T21:01:31.944Z,99745.78
2023-08-30T21:03:59.093Z,99745.47
2023-08-30T21:06:29.493Z,99741.09
2023-08-30T21:09:16.432Z,99741.94
2023-08-30T21:11:43.384Z,99740.09
2023-08-30T21:14:15.356Z,99739.81
2023-08-30T21:16:42.301Z,99732.53
2023-08-30T21:19:09.325Z,99733.16
2023-08-30T21:21:36.294Z,99727.81
2023-08-30T21:24:05.374Z,99722.06
2023-08-30T21:26:32.323Z,99729.97
2023-08-30T21:28:59.258Z,99728.59
2023-08-30T21:31:29.541Z,99721.41
2023-08-30T21:33:59.450Z,99727.94
2023-08-30T21:36:26.394Z,99718.66
2023-08-30T21:38:57.985Z,99720.34
2023-08-30T21:41:25.057Z,99717.28
2023-08-30T21:43:53.744Z,99711.94
2023-08-30T21:46:21.587Z,99710.28
2023-08-30T21:48:49.647Z,99710.09
2023-08-30T21:51:17.161Z,99713.47
2023-08-30T21:53:46.333Z,99707.09
2023-08-30T21:56:13.284Z,99703.69
2023-08-30T21:58:40.233Z,99705.38
2023-08-30T22:01:08.835Z,99702.38
2023-08-30T22:03:36.383Z,99704.38
2023-08-30T22:06:07.570Z,99700.84
2023-08-30T22:08:34.619Z,99700.22
2023-08-30T22:11:08.942Z,99704.25
2023-08-30T22:13:37.252Z,99693.25
2023-08-30T22:16:05.130Z,99689.53
2023-08-30T22:18:33.101Z,99684.50
2023-08-30T22:20:59.981Z,99699.44
2023-08-30T22:23:26.930Z,99692.88
2023-08-30T22:25:55.181Z,99698.38
2023-08-30T22:28:24.231Z,99693.69
2023-08-30T22:30:55.170Z,99697.91
2023-08-30T22:33:23.360Z,99695.75
2023-08-30T22:35:50.281Z,99701.13
2023-08-30T22:38:17.623Z,99692.59
2023-08-30T22:40:46.220Z,99694.28
2023-08-30T22:43:13.467Z,99691.28
2023-08-30T22:45:41.107Z,99686.94
2023-08-30T22:48:08.174Z,99687.13
2023-08-30T22:50:36.286Z,99688.81
2023-08-30T22:53:03.268Z,99694.47
2023-08-30T22:55:30.515Z,99689.13
2023-08-30T22:57:57.467Z,99692.00
2023-08-30T23:00:25.180Z,99693.00
2023-08-30T23:02:52.168Z,99687.97
2023-08-30T23:05:19.683Z,99692.34
2023-08-30T23:07:47.990Z,99681.78
2023-08-30T23:10:15.188Z,99676.91
2023-08-30T23:12:42.466Z,99677.59
2023-08-30T23:15:12.589Z,99684.31
2023-08-30T23:17:46.774Z,99693.84
2023-08-30T23:20:15.980Z,99679.91
2023-08-30T23:22:43.306Z,99689.31
2023-08-30T23:25:12.232Z,99696.00
2023-08-30T23:27:39.490Z,99695.00
2023-08-30T23:30:09.384Z,99694.84
2023-08-30T23:32:37.175Z,99701.75
2023-08-30T23:35:06.314Z,99697.38
2023-08-30T23:37:33.725Z,99701.03
2023-08-30T23:40:01.858Z,99693.53
2023-08-30T23:42:29.019Z,99693.22
2023-08-30T23:44:59.478Z,99702.78
2023-08-30T23:47:28.556Z,99691.53
2023-08-30T23:53:02.305Z,99688.22
2023-08-30T23:55:30.833Z,99694.72
2023-08-30T23:58:00.260Z,99699.78
